createdAt,value
2022-11-23T00:01:34.348Z,536.30769
2022-11-23T00:06:36.134Z,542.05825
2022-11-23T00:11:37.599Z,560
2022-11-23T00:16:39.074Z,560
2022-11-23T00:21:40.812Z,560
2022-11-23T00:26:42.404Z,566.22222
2022-11-23T00:31:43.849Z,572.57143
2022-11-23T00:36:47.154Z,560
2022-11-23T00:41:48.662Z,560
2022-11-23T00:46:50.314Z,525.13208
2022-11-23T00:51:51.922Z,536.30769
2022-11-23T00:56:53.591Z,525.13208
2022-11-23T01:01:55.391Z,547.92157
2022-11-23T01:06:58.178Z,530.66667
2022-11-23T01:11:59.921Z,525.13208
2022-11-23T01:17:01.639Z,504
2022-11-23T01:22:03.368Z,530.66667
2022-11-23T01:27:05.117Z,514.37037
2022-11-23T01:32:06.899Z,536.30769
2022-11-23T01:37:08.982Z,514.37037
2022-11-23T01:42:15.164Z,519.70093
2022-11-23T01:47:19.463Z,494
2022-11-23T01:52:21.284Z,525.13208
2022-11-23T01:57:23.078Z,504
2022-11-23T02:02:25.439Z,519.70093
2022-11-23T02:07:27.525Z,509.13761
2022-11-23T02:12:29.221Z,509.13761
2022-11-23T02:17:30.737Z,530.66667
2022-11-23T02:22:32.340Z,479.65217
2022-11-23T02:27:33.852Z,498.95495
2022-11-23T02:32:35.495Z,470.49573
2022-11-23T02:37:37.258Z,479.65217
2022-11-23T02:42:39.056Z,484.35088
2022-11-23T02:47:40.880Z,484.35088
2022-11-23T02:52:42.607Z,484.35088
2022-11-23T02:57:44.276Z,484.35088
2022-11-23T03:02:45.901Z,484.35088
2022-11-23T03:07:48.015Z,484.35088
2022-11-23T03:12:49.796Z,494
2022-11-23T03:17:51.613Z,484.35088
2022-11-23T03:22:53.410Z,470.49573
2022-11-23T03:27:55.273Z,479.65217
2022-11-23T03:32:57.051Z,475.03448
2022-11-23T03:37:59.516Z,461.64706
2022-11-23T03:43:01.270Z,444.81301
2022-11-23T03:48:03.046Z,448.91803
2022-11-23T03:53:04.881Z,440.77419
2022-11-23T03:58:06.659Z,444.81301
2022-11-23T04:03:08.427Z,444.81301
2022-11-23T04:08:10.422Z,346.61438
2022-11-23T04:13:12.168Z,349.26316
2022-11-23T04:18:13.962Z,400.2963
2022-11-23T04:23:15.553Z,390.37681
2022-11-23T04:28:17.311Z,368.82759
2022-11-23T04:33:19.081Z,371.77778
2022-11-23T04:38:21.044Z,407.15789
2022-11-23T04:43:22.825Z,393.63504
2022-11-23T04:48:24.633Z,374.76923
2022-11-23T04:53:26.442Z,425.25
2022-11-23T04:58:30.304Z,440.77419
2022-11-23T05:03:35.831Z,393.63504
2022-11-23T05:08:37.584Z,432.88889
2022-11-23T05:13:39.078Z,400.2963
2022-11-23T05:18:40.545Z,384
2022-11-23T05:23:42.223Z,400.2963
2022-11-23T05:28:43.915Z,384
2022-11-23T05:33:46.056Z,377.80282
2022-11-23T05:38:47.791Z,417.84615
2022-11-23T05:43:49.299Z,432.88889
2022-11-23T05:48:50.805Z,429.03937
2022-11-23T05:53:52.322Z,448.91803
2022-11-23T05:58:54.035Z,448.91803
2022-11-23T06:03:55.881Z,461.64706
2022-11-23T06:08:57.652Z,432.88889
2022-11-23T06:13:59.371Z,421.51938
2022-11-23T06:19:01.796Z,466.0339
2022-11-23T06:24:03.401Z,453.09091
2022-11-23T06:29:05.209Z,440.77419
2022-11-23T06:34:06.898Z,466.0339
2022-11-23T06:39:08.732Z,453.09091
2022-11-23T06:44:10.566Z,498.95495
2022-11-23T06:49:12.229Z,484.35088
2022-11-23T06:54:13.971Z,448.91803
2022-11-23T06:59:15.718Z,475.03448
2022-11-23T07:04:17.449Z,599.31915
2022-11-23T07:09:19.485Z,620.92308
2022-11-23T07:14:21.270Z,613.56522
2022-11-23T07:19:23.064Z,704.49383
2022-11-23T07:24:24.805Z,723.74684
2022-11-23T07:29:26.320Z,668.70588
2022-11-23T07:34:27.935Z,644
2022-11-23T07:39:55.229Z,660.27907
2022-11-23T07:44:58.800Z,606.36559
2022-11-23T07:50:00.597Z,704.49383
2022-11-23T07:55:02.610Z,636.13483
2022-11-23T08:00:04.423Z,686.16867
2022-11-23T08:05:08.784Z,686.16867
2022-11-23T08:10:15.798Z,714
2022-11-23T08:15:17.576Z,668.70588
2022-11-23T08:20:19.313Z,592.42105
2022-11-23T08:25:21.260Z,636.13483
2022-11-23T08:30:23.190Z,695.21951
2022-11-23T08:35:25.009Z,723.74684
2022-11-23T08:40:27.174Z,744
2022-11-23T08:45:29.061Z,585.66667
2022-11-23T08:50:30.946Z,652.04598
2022-11-23T08:55:33.105Z,744
2022-11-23T09:00:34.638Z,704.49383
2022-11-23T09:05:36.172Z,733.74359
2022-11-23T09:10:37.867Z,765.33333
2022-11-23T09:15:39.551Z,733.74359
2022-11-23T09:20:41.181Z,723.74684
2022-11-23T09:25:43.056Z,723.74684
2022-11-23T09:30:44.823Z,754.52632
2022-11-23T09:35:46.359Z,765.33333
2022-11-23T09:40:51.411Z,824
2022-11-23T09:45:57.196Z,799.55556
2022-11-23T09:50:59.013Z,776.43243
2022-11-23T09:56:00.796Z,686.16867
2022-11-23T10:01:02.527Z,733.74359
2022-11-23T10:06:04.289Z,799.55556
2022-11-23T10:11:06.387Z,811.60563
2022-11-23T10:16:08.016Z,799.55556
2022-11-23T10:21:09.660Z,799.55556
2022-11-23T10:26:11.189Z,765.33333
2022-11-23T10:31:12.837Z,723.74684
2022-11-23T10:36:15.800Z,811.60563
2022-11-23T10:41:18.025Z,695.21951
2022-11-23T10:46:20.261Z,754.52632
2022-11-23T10:51:21.986Z,787.83562
2022-11-23T10:56:23.537Z,776.43243
2022-11-23T11:01:25.379Z,733.74359
2022-11-23T11:06:27.103Z,787.83562
2022-11-23T11:11:28.736Z,799.55556
2022-11-23T11:16:30.413Z,787.83562
2022-11-23T11:21:31.998Z,754.52632
2022-11-23T11:26:33.928Z,787.83562
2022-11-23T11:31:35.492Z,836.75362
2022-11-23T11:36:37.403Z,849.88235
2022-11-23T11:41:39.251Z,921.77778
2022-11-23T11:46:40.823Z,811.60563
2022-11-23T11:51:42.412Z,877.33333
2022-11-23T11:56:43.886Z,877.33333
2022-11-23T12:01:45.617Z,863.40299
2022-11-23T12:06:47.384Z,863.40299
2022-11-23T12:11:50.033Z,906.5
2022-11-23T12:17:04.333Z,863.40299
2022-11-23T12:22:27.403Z,863.40299
2022-11-23T12:27:29.162Z,836.75362
2022-11-23T12:32:30.862Z,921.77778
2022-11-23T12:37:32.343Z,877.33333
2022-11-23T12:42:34.385Z,811.60563
2022-11-23T12:47:36.011Z,906.5
2022-11-23T12:52:37.601Z,921.77778
2022-11-23T12:57:39.321Z,787.83562
2022-11-23T13:02:40.857Z,921.77778
2022-11-23T13:07:46.251Z,877.33333
2022-11-23T13:12:51.039Z,921.77778
2022-11-23T13:17:52.531Z,921.77778
2022-11-23T13:22:54.020Z,1006.06897
2022-11-23T13:27:55.908Z,891.69231
2022-11-23T13:32:57.562Z,937.54839
2022-11-23T13:37:59.294Z,906.5
2022-11-23T13:43:01.001Z,891.69231
2022-11-23T13:48:02.768Z,937.54839
2022-11-23T13:53:04.344Z,988.0678
2022-11-23T13:58:06.036Z,937.54839
2022-11-23T14:03:07.884Z,953.83607
2022-11-23T14:08:09.390Z,921.77778
2022-11-23T14:13:11.113Z,953.83607
2022-11-23T14:18:12.647Z,937.54839
2022-11-23T14:23:14.132Z,953.83607
2022-11-23T14:28:15.804Z,953.83607
2022-11-23T14:33:17.510Z,906.5
2022-11-23T14:38:19.271Z,921.77778
2022-11-23T14:43:21.158Z,891.69231
2022-11-23T14:48:22.824Z,891.69231
2022-11-23T14:53:24.357Z,937.54839
2022-11-23T14:58:26.437Z,877.33333
2022-11-23T15:03:50.383Z,776.43243
2022-11-23T15:08:53.107Z,921.77778
2022-11-23T15:13:55.160Z,937.54839
2022-11-23T15:18:56.917Z,799.55556
2022-11-23T15:23:58.675Z,906.5
2022-11-23T15:29:00.452Z,891.69231
2022-11-23T15:34:02.283Z,891.69231
2022-11-23T15:39:04.053Z,836.75362
2022-11-23T15:44:06.076Z,824
2022-11-23T15:49:07.848Z,836.75362
2022-11-23T15:54:09.702Z,849.88235
2022-11-23T15:59:11.518Z,824
2022-11-23T16:04:13.475Z,863.40299
2022-11-23T16:09:49.187Z,824
2022-11-23T16:14:53.248Z,754.52632
2022-11-23T16:19:54.735Z,776.43243
2022-11-23T16:24:56.399Z,660.27907
2022-11-23T16:30:02.927Z,644
2022-11-23T16:35:05.027Z,765.33333
2022-11-23T16:40:06.695Z,628.44444
2022-11-23T16:45:08.730Z,620.92308
2022-11-23T16:50:10.361Z,652.04598
2022-11-23T16:55:15.008Z,536.30769
2022-11-23T17:00:16.754Z,547.92157
2022-11-23T17:05:18.469Z,592.42105
2022-11-23T17:10:20.244Z,494
2022-11-23T17:15:22.687Z,579.05155
2022-11-23T17:20:24.453Z,613.56522
2022-11-23T17:25:26.239Z,489.13274
2022-11-23T17:30:28.398Z,448.91803
2022-11-23T17:35:33.973Z,444.81301
2022-11-23T17:40:38.712Z,349.26316
2022-11-23T17:45:40.377Z,344
2022-11-23T17:50:41.952Z,396.94118
2022-11-23T17:55:43.421Z,436.8
2022-11-23T18:00:45.247Z,387.16547
2022-11-23T18:05:46.995Z,393.63504
2022-11-23T18:10:48.695Z,396.94118
2022-11-23T18:15:50.600Z,349.26316
2022-11-23T18:20:52.408Z,417.84615
2022-11-23T18:25:54.264Z,414.22901
2022-11-23T18:30:56.204Z,396.94118
2022-11-23T18:36:03.637Z,432.88889
2022-11-23T18:41:07.254Z,410.66667
2022-11-23T18:46:09.264Z,421.51938
2022-11-23T18:51:11.099Z,407.15789
2022-11-23T18:56:12.891Z,421.51938
2022-11-23T19:01:14.876Z,417.84615
2022-11-23T19:06:16.735Z,417.84615
2022-11-23T19:11:18.651Z,403.70149
2022-11-23T19:16:20.772Z,444.81301
2022-11-23T19:21:22.628Z,475.03448
2022-11-23T19:26:24.458Z,514.37037
2022-11-23T19:31:26.362Z,498.95495
2022-11-23T19:36:28.230Z,519.70093
2022-11-23T19:41:30.908Z,494
2022-11-23T19:46:33.089Z,504
2022-11-23T19:51:34.781Z,504
2022-11-23T19:56:36.304Z,475.03448
2022-11-23T20:01:38.046Z,479.65217
2022-11-23T20:06:39.558Z,504
2022-11-23T20:11:41.305Z,519.70093
2022-11-23T20:16:43.295Z,489.13274
2022-11-23T20:21:44.724Z,504
2022-11-23T20:26:46.526Z,489.13274
2022-11-23T20:31:48.437Z,498.95495
2022-11-23T20:36:50.245Z,504
2022-11-23T20:41:52.021Z,498.95495
2022-11-23T20:47:01.715Z,484.35088
2022-11-23T20:52:04.755Z,509.13761
2022-11-23T20:57:06.606Z,484.35088
2022-11-23T21:02:08.157Z,448.91803
2022-11-23T21:07:09.706Z,444.81301
2022-11-23T21:12:11.261Z,429.03937
2022-11-23T21:17:13.115Z,425.25
2022-11-23T21:22:14.651Z,421.51938
2022-11-23T21:27:16.101Z,417.84615
2022-11-23T21:32:17.796Z,417.84615
2022-11-23T21:37:19.416Z,410.66667
2022-11-23T21:42:20.887Z,403.70149
2022-11-23T21:47:22.726Z,403.70149
2022-11-23T21:52:24.434Z,390.37681
2022-11-23T21:57:26.154Z,384
2022-11-23T22:02:27.801Z,387.16547
2022-11-23T22:07:29.411Z,384
2022-11-23T22:12:31.021Z,393.63504
2022-11-23T22:17:32.986Z,393.63504
2022-11-23T22:22:34.544Z,384
2022-11-23T22:27:36.016Z,384
2022-11-23T22:32:37.625Z,380.87943
2022-11-23T22:37:39.209Z,400.2963
2022-11-23T22:42:41.031Z,390.37681
2022-11-23T22:47:42.795Z,380.87943
2022-11-23T22:52:44.372Z,384
2022-11-23T22:57:46.197Z,380.87943
2022-11-23T23:02:48.277Z,371.77778
2022-11-23T23:07:50.248Z,365.91781
2022-11-23T23:12:52.054Z,365.91781
2022-11-23T23:17:54.051Z,333.87342
2022-11-23T23:22:55.816Z,321.91411
2022-11-23T23:27:57.312Z,296
2022-11-23T23:32:59.153Z,284.33149
2022-11-23T23:38:00.769Z,278.78261
2022-11-23T23:43:02.533Z,306.35294
2022-11-23T23:48:04.605Z,321.91411
2022-11-23T23:53:06.391Z,329
2022-11-23T23:58:07.940Z,336.35669
